createdAt,value
2023-03-05T00:02:32.149Z,5.41
2023-03-05T00:07:33.592Z,5.38
2023-03-05T00:12:35.111Z,5.39
2023-03-05T00:17:36.559Z,5.36
2023-03-05T00:22:37.989Z,5.28
2023-03-05T00:27:39.609Z,5.27
2023-03-05T00:32:41.074Z,5.27
2023-03-05T00:37:42.795Z,5.34
2023-03-05T00:42:44.253Z,5.26
2023-03-05T00:47:45.727Z,5.15
2023-03-05T00:52:47.183Z,5.13
2023-03-05T00:57:48.602Z,5.15
2023-03-05T01:02:50.124Z,5.22
2023-03-05T01:07:55.923Z,5.18
2023-03-05T01:12:57.578Z,5.15
2023-03-05T01:17:59.036Z,5.15
2023-03-05T01:23:01.705Z,5.15
2023-03-05T01:28:03.713Z,5.15
2023-03-05T01:33:05.172Z,5.23
2023-03-05T01:38:07.271Z,5.30
2023-03-05T01:43:11.393Z,5.33
2023-03-05T01:48:12.855Z,5.40
2023-03-05T01:53:14.351Z,5.44
2023-03-05T01:58:15.812Z,5.45
2023-03-05T02:03:17.437Z,5.44
2023-03-05T02:08:22.112Z,5.45
2023-03-05T02:13:27.270Z,5.49
2023-03-05T02:18:28.805Z,5.50
2023-03-05T02:23:36.585Z,5.49
2023-03-05T02:28:51.952Z,5.48
2023-03-05T02:33:54.094Z,5.49
2023-03-05T02:38:57.392Z,5.51
2023-03-05T02:43:58.862Z,5.51
2023-03-05T02:49:00.698Z,5.49
2023-03-05T02:54:02.146Z,5.47
2023-03-05T02:59:03.907Z,5.46
2023-03-05T03:04:05.726Z,5.44
2023-03-05T03:09:07.195Z,5.39
2023-03-05T03:14:08.835Z,5.34
2023-03-05T03:19:10.302Z,5.32
2023-03-05T03:24:11.750Z,5.19
2023-03-05T03:29:13.147Z,5.10
2023-03-05T03:34:15.864Z,5.01
2023-03-05T03:39:17.617Z,5.02
2023-03-05T03:44:20.787Z,5.02
2023-03-05T03:49:25.141Z,5.02
2023-03-05T03:54:26.597Z,5.03
2023-03-05T03:59:28.172Z,5.00
2023-03-05T04:04:30.354Z,4.90
2023-03-05T04:09:31.825Z,4.81
2023-03-05T04:14:33.324Z,4.83
2023-03-05T04:19:36.835Z,4.80
2023-03-05T04:24:38.765Z,4.69
2023-03-05T04:29:40.168Z,4.68
2023-03-05T04:34:41.614Z,4.71
2023-03-05T04:39:43.726Z,4.76
2023-03-05T04:44:45.360Z,4.77
2023-03-05T04:49:46.930Z,4.79
2023-03-05T04:54:48.440Z,4.83
2023-03-05T04:59:49.904Z,4.81
2023-03-05T05:04:54.722Z,4.83
2023-03-05T05:09:56.135Z,4.79
2023-03-05T05:14:58.027Z,4.69
2023-03-05T05:20:00.572Z,4.73
2023-03-05T05:25:02.139Z,4.73
2023-03-05T05:30:04.519Z,4.72
2023-03-05T05:35:06.484Z,4.77
2023-03-05T05:40:09.522Z,4.84
2023-03-05T05:45:12.058Z,4.90
2023-03-05T05:50:14.481Z,4.97
2023-03-05T05:55:16.084Z,4.98
2023-03-05T06:00:17.913Z,4.95
2023-03-05T06:05:19.509Z,4.96
2023-03-05T06:10:20.999Z,4.96
2023-03-05T06:15:22.421Z,4.92
2023-03-05T06:20:23.946Z,4.97
2023-03-05T06:25:25.373Z,4.93
2023-03-05T06:30:26.846Z,4.95
2023-03-05T06:35:28.333Z,5.01
2023-03-05T06:40:29.793Z,4.97
2023-03-05T06:45:31.347Z,4.97
2023-03-05T06:50:36.550Z,4.90
2023-03-05T06:55:39.752Z,4.88
2023-03-05T07:00:41.514Z,4.86
2023-03-05T07:05:43.699Z,4.93
2023-03-05T07:10:45.201Z,5.01
2023-03-05T07:15:46.613Z,5.01
2023-03-05T07:20:48.115Z,5.10
2023-03-05T07:25:49.497Z,5.08
2023-03-05T07:31:05.554Z,5.17
2023-03-05T07:36:11.514Z,5.12
2023-03-05T07:41:19.641Z,5.26
2023-03-05T07:46:24.750Z,5.24
2023-03-05T07:51:27.316Z,5.46
2023-03-05T07:56:35.287Z,5.71
2023-03-05T08:01:37.380Z,5.92
2023-03-05T08:06:40.963Z,6.06
2023-03-05T08:11:42.804Z,6.18
2023-03-05T08:16:46.313Z,6.19
2023-03-05T08:21:48.665Z,6.29
2023-03-05T08:26:50.080Z,6.22
2023-03-05T08:31:53.614Z,6.33
2023-03-05T08:36:55.204Z,6.34
2023-03-05T08:41:56.761Z,6.38
2023-03-05T08:46:58.212Z,6.43
2023-03-05T08:51:59.672Z,6.60
2023-03-05T08:57:01.446Z,6.68
2023-03-05T09:02:04.361Z,6.83
2023-03-05T09:07:06.001Z,6.83
2023-03-05T09:12:07.725Z,6.82
2023-03-05T09:17:09.325Z,6.71
2023-03-05T09:22:10.736Z,6.91
2023-03-05T09:27:12.805Z,6.87
2023-03-05T09:32:14.394Z,6.62
2023-03-05T09:37:15.877Z,6.57
2023-03-05T09:42:41.716Z,6.78
2023-03-05T09:48:06.478Z,6.87
2023-03-05T09:53:21.805Z,6.87
2023-03-05T09:58:33.884Z,6.76
2023-03-05T10:03:58.031Z,6.96
2023-03-05T10:09:28.330Z,7.26
2023-03-05T10:14:35.627Z,7.48
2023-03-05T10:19:51.699Z,7.83
2023-03-05T10:25:05.366Z,7.64
2023-03-05T10:30:29.196Z,7.30
2023-03-05T10:35:45.472Z,7.40
2023-03-05T10:40:51.241Z,7.65
2023-03-05T10:45:54.023Z,7.72
2023-03-05T10:51:13.479Z,7.51
2023-03-05T10:56:15.880Z,7.54
2023-03-05T11:01:24.316Z,7.58
2023-03-05T11:06:41.832Z,7.50
2023-03-05T11:11:43.618Z,7.32
2023-03-05T11:16:50.887Z,7.11
2023-03-05T11:22:20.528Z,7.07
2023-03-05T11:27:43.081Z,7.25
2023-03-05T11:32:44.557Z,7.56
2023-03-05T11:38:00.758Z,7.86
2023-03-05T11:43:03.964Z,8.08
2023-03-05T11:48:28.385Z,8.29
2023-03-05T11:53:35.895Z,8.20
2023-03-05T11:59:04.682Z,8.07
2023-03-05T12:04:08.536Z,8.09
2023-03-05T12:09:18.675Z,8.08
2023-03-05T12:14:28.771Z,8.10
2023-03-05T12:19:39.380Z,8.08
2023-03-05T12:24:41.182Z,8.03
2023-03-05T12:29:49.241Z,7.83
2023-03-05T12:35:26.107Z,7.69
2023-03-05T12:40:29.015Z,7.83
2023-03-05T12:45:36.412Z,7.86
2023-03-05T12:50:37.745Z,7.85
2023-03-05T12:55:48.289Z,7.70
2023-03-05T13:00:54.551Z,7.42
2023-03-05T13:05:58.811Z,7.22
2023-03-05T13:11:01.232Z,7.20
2023-03-05T13:16:03.842Z,7.34
2023-03-05T13:21:08.137Z,7.28
2023-03-05T13:26:15.475Z,7.33
2023-03-05T13:31:19.329Z,7.32
2023-03-05T13:36:24.032Z,7.39
2023-03-05T13:41:27.738Z,7.53
2023-03-05T13:46:39.229Z,7.59
2023-03-05T13:51:42.789Z,7.60
2023-03-05T13:57:00.200Z,7.48
2023-03-05T14:02:05.848Z,7.39
2023-03-05T14:07:24.444Z,7.18
2023-03-05T14:12:35.637Z,7.21
2023-03-05T14:17:43.688Z,7.25
2023-03-05T14:22:48.443Z,7.23
2023-03-05T14:27:49.902Z,7.33
2023-03-05T14:32:55.474Z,7.39
2023-03-05T14:37:59.270Z,7.34
2023-03-05T14:43:10.796Z,7.00
2023-03-05T14:48:15.145Z,6.96
2023-03-05T14:53:38.637Z,6.99
2023-03-05T14:58:40.174Z,6.89
2023-03-05T15:03:41.666Z,6.79
2023-03-05T15:08:43.200Z,6.82
2023-03-05T15:13:44.658Z,6.87
2023-03-05T15:18:46.209Z,6.89
2023-03-05T15:23:47.651Z,6.80
2023-03-05T15:28:49.861Z,6.83
2023-03-05T15:33:51.289Z,6.87
2023-03-05T15:38:52.676Z,6.87
2023-03-05T15:43:54.106Z,6.92
2023-03-05T15:48:55.520Z,6.83
2023-03-05T15:53:57.919Z,6.86
2023-03-05T15:58:59.831Z,6.60
2023-03-05T16:04:01.726Z,6.58
2023-03-05T16:09:04.909Z,6.54
2023-03-05T16:14:09.755Z,6.53
2023-03-05T16:19:15.743Z,6.46
2023-03-05T16:24:17.670Z,6.55
2023-03-05T16:29:19.264Z,6.65
2023-03-05T16:34:20.850Z,6.48
2023-03-05T16:39:22.608Z,6.52
2023-03-05T16:44:24.036Z,6.53
2023-03-05T16:49:25.527Z,6.43
2023-03-05T16:54:27.183Z,6.45
2023-03-05T16:59:29.578Z,6.48
2023-03-05T17:04:31.119Z,6.39
2023-03-05T17:09:32.940Z,6.34
2023-03-05T17:14:34.480Z,6.28
2023-03-05T17:19:35.994Z,6.24
2023-03-05T17:24:38.379Z,6.21
2023-03-05T17:29:39.892Z,6.25
2023-03-05T17:34:41.645Z,6.27
2023-03-05T17:39:43.261Z,6.27
2023-03-05T17:44:44.696Z,6.28
2023-03-05T17:49:46.128Z,6.22
2023-03-05T17:54:48.925Z,6.04
2023-03-05T17:59:50.438Z,6.01
2023-03-05T18:04:52.144Z,5.97
2023-03-05T18:09:53.541Z,6.00
2023-03-05T18:14:54.919Z,5.98
2023-03-05T18:19:56.691Z,6.01
2023-03-05T18:24:58.182Z,5.97
2023-03-05T18:29:59.584Z,5.98
2023-03-05T18:35:01.024Z,5.94
2023-03-05T18:40:03.165Z,5.95
2023-03-05T18:45:06.436Z,5.96
2023-03-05T18:50:14.690Z,6.01
2023-03-05T18:55:20.284Z,6.03
2023-03-05T19:00:25.334Z,5.99
2023-03-05T19:05:26.943Z,5.85
2023-03-05T19:10:28.475Z,5.76
2023-03-05T19:15:29.925Z,5.70
2023-03-05T19:20:31.444Z,5.62
2023-03-05T19:25:33.400Z,5.57
2023-03-05T19:30:35.947Z,5.55
2023-03-05T19:35:37.669Z,5.50
2023-03-05T19:40:41.477Z,5.43
2023-03-05T19:45:43.176Z,5.38
2023-03-05T19:50:44.564Z,5.32
2023-03-05T19:55:45.952Z,5.28
2023-03-05T20:00:47.500Z,5.24
2023-03-05T20:05:48.919Z,5.23
2023-03-05T20:10:50.373Z,5.20
2023-03-05T20:15:52.676Z,5.15
2023-03-05T20:20:57.766Z,5.13
2023-03-05T20:25:59.638Z,5.10
2023-03-05T20:31:02.140Z,5.06
2023-03-05T20:36:04.353Z,5.05
2023-03-05T20:41:10.138Z,5.01
2023-03-05T20:46:19.020Z,5.01
2023-03-05T20:51:26.244Z,5.04
2023-03-05T20:56:29.198Z,5.03
2023-03-05T21:01:33.028Z,5.10
2023-03-05T21:06:34.884Z,5.01
2023-03-05T21:11:37.256Z,5.02
2023-03-05T21:16:38.921Z,4.97
2023-03-05T21:21:44.702Z,4.92
2023-03-05T21:26:46.539Z,4.91
2023-03-05T21:31:48.052Z,4.86
2023-03-05T21:36:49.480Z,4.86
2023-03-05T21:41:50.969Z,4.84
2023-03-05T21:46:52.407Z,4.80
2023-03-05T21:52:08.980Z,4.75
2023-03-05T21:57:11.507Z,4.73
2023-03-05T22:02:14.095Z,4.71
2023-03-05T22:07:16.753Z,4.70
2023-03-05T22:12:26.785Z,4.68
2023-03-05T22:17:28.170Z,4.73
2023-03-05T22:22:29.673Z,4.76
2023-03-05T22:27:31.137Z,4.78
2023-03-05T22:32:34.988Z,4.78
2023-03-05T22:37:36.390Z,4.77
2023-03-05T22:42:37.789Z,4.77
2023-03-05T22:47:39.171Z,4.74
2023-03-05T22:52:40.604Z,4.70
2023-03-05T22:57:43.691Z,4.77
2023-03-05T23:02:45.130Z,4.84
2023-03-05T23:07:46.649Z,4.87
2023-03-05T23:12:50.718Z,4.81
2023-03-05T23:17:52.300Z,4.72
2023-03-05T23:22:55.932Z,4.71
2023-03-05T23:27:58.633Z,4.69
2023-03-05T23:33:07.721Z,4.67
2023-03-05T23:38:12.572Z,4.62
2023-03-05T23:43:15.496Z,4.55
2023-03-05T23:48:17.895Z,4.45
2023-03-05T23:53:25.544Z,4.44
2023-03-05T23:58:27.044Z,4.45
